createdAt,value
2023-04-11T00:02:26.304Z,50.50
2023-04-11T00:04:55.037Z,36.90
2023-04-11T00:07:22.302Z,33.30
2023-04-11T00:09:49.478Z,35.63
2023-04-11T00:12:16.926Z,37.10
2023-04-11T00:14:45.577Z,37.60
2023-04-11T00:17:13.037Z,42.23
2023-04-11T00:19:40.223Z,29.93
2023-04-11T00:22:09.402Z,22.13
2023-04-11T00:24:36.562Z,18.27
2023-04-11T00:27:03.715Z,13.27
2023-04-11T00:29:30.809Z,14.47
2023-04-11T00:31:57.945Z,23.20
2023-04-11T00:34:25.643Z,29.33
2023-04-11T00:36:52.831Z,28.67
2023-04-11T00:39:21.239Z,29.80
2023-04-11T00:41:48.303Z,30.03
2023-04-11T00:44:15.634Z,26.47
2023-04-11T00:46:46.034Z,27.20
2023-04-11T00:49:13.336Z,22.37
2023-04-11T00:51:40.455Z,23.90
2023-04-11T00:54:10.286Z,24.63
2023-04-11T00:56:37.514Z,21.77
2023-04-11T00:59:04.662Z,23.47
2023-04-11T01:01:36.193Z,20.10
2023-04-11T01:04:03.770Z,19.83
2023-04-11T01:06:31.073Z,22.53
2023-04-11T01:08:58.312Z,23.40
2023-04-11T01:11:25.571Z,23.07
2023-04-11T01:13:52.680Z,22.97
2023-04-11T01:16:21.482Z,22.47
2023-04-11T01:18:49.680Z,22.97
2023-04-11T01:21:17.489Z,23.20
2023-04-11T01:23:44.569Z,21.87
2023-04-11T01:26:12.304Z,21.53
2023-04-11T01:28:39.453Z,29.03
2023-04-11T01:31:08.275Z,20.13
2023-04-11T01:33:35.403Z,16.07
2023-04-11T01:36:02.647Z,17.13
2023-04-11T01:38:29.901Z,28.07
2023-04-11T01:40:56.962Z,20.53
2023-04-11T01:43:24.056Z,21.40
2023-04-11T01:45:51.149Z,18.50
2023-04-11T01:48:18.315Z,17.83
2023-04-11T01:50:45.497Z,22.53
2023-04-11T01:53:12.622Z,19.67
2023-04-11T01:55:39.685Z,19.90
2023-04-11T01:58:06.772Z,14.97
2023-04-11T02:00:36.930Z,14.03
2023-04-11T02:03:05.213Z,18.07
2023-04-11T02:05:32.598Z,23.30
2023-04-11T02:07:59.694Z,13.97
2023-04-11T02:10:26.801Z,10.80
2023-04-11T02:12:53.953Z,16.57
2023-04-11T02:15:21.100Z,16.13
2023-04-11T02:17:48.201Z,9.50
2023-04-11T02:20:15.548Z,9.80
2023-04-11T02:22:42.657Z,11.10
2023-04-11T02:25:09.932Z,16.13
2023-04-11T02:27:37.256Z,16.23
2023-04-11T02:30:07.524Z,13.63
2023-04-11T02:32:35.243Z,14.17
2023-04-11T02:35:02.510Z,13.97
2023-04-11T02:37:29.620Z,16.37
2023-04-11T02:39:56.772Z,20.83
2023-04-11T02:42:23.864Z,21.47
2023-04-11T02:44:50.929Z,21.07
2023-04-11T02:47:18.076Z,14.30
2023-04-11T02:49:45.199Z,14.07
2023-04-11T02:52:12.270Z,13.70
2023-04-11T02:54:39.419Z,13.83
2023-04-11T02:57:06.535Z,13.70
2023-04-11T02:59:33.606Z,13.57
2023-04-11T03:02:00.924Z,13.90
2023-04-11T03:04:28.299Z,11.63
2023-04-11T03:06:55.496Z,12.07
2023-04-11T03:09:23.570Z,10.73
2023-04-11T03:11:50.658Z,11.53
2023-04-11T03:14:17.745Z,11.37
2023-04-11T03:16:44.874Z,10.90
2023-04-11T03:19:12.020Z,11.17
2023-04-11T03:21:39.114Z,10.03
2023-04-11T03:24:06.423Z,10.73
2023-04-11T03:26:33.573Z,9.93
2023-04-11T03:29:00.652Z,12.30
2023-04-11T03:31:28.919Z,14.43
2023-04-11T03:33:56.066Z,7.83
2023-04-11T03:36:23.142Z,6.83
2023-04-11T03:38:50.317Z,5.90
2023-04-11T03:41:19.392Z,6.10
2023-04-11T03:43:46.530Z,5.63
2023-04-11T03:46:13.642Z,5.93
2023-04-11T03:48:40.803Z,6.63
2023-04-11T03:51:07.898Z,6.93
2023-04-11T03:53:35.044Z,6.20
2023-04-11T03:56:02.195Z,36.80
2023-04-11T03:58:29.290Z,18.53
2023-04-11T04:00:56.488Z,16.43
2023-04-11T04:03:23.972Z,25.10
2023-04-11T04:05:51.177Z,13.03
2023-04-11T04:08:18.267Z,16.03
2023-04-11T04:10:46.942Z,14.67
2023-04-11T04:13:14.044Z,9.73
2023-04-11T04:15:41.113Z,10.63
2023-04-11T04:18:08.276Z,8.27
2023-04-11T04:20:35.402Z,14.90
2023-04-11T04:23:04.515Z,16.50
2023-04-11T04:25:31.650Z,14.47
2023-04-11T04:28:00.896Z,12.73
2023-04-11T04:30:28.962Z,8.70
2023-04-11T04:32:59.000Z,7.87
2023-04-11T04:35:26.798Z,8.27
2023-04-11T04:37:54.150Z,9.17
2023-04-11T04:40:22.515Z,8.77
2023-04-11T04:42:58.093Z,8.90
2023-04-11T04:45:26.287Z,8.47
2023-04-11T04:47:53.518Z,8.47
2023-04-11T04:50:20.874Z,8.60
2023-04-11T04:52:48.064Z,10.17
2023-04-11T04:55:15.444Z,10.67
2023-04-11T04:57:42.806Z,12.90
2023-04-11T05:00:11.648Z,14.73
2023-04-11T05:02:40.585Z,16.67
2023-04-11T05:05:08.036Z,23.17
2023-04-11T05:07:35.427Z,22.67
2023-04-11T05:10:02.605Z,18.57
2023-04-11T05:12:30.002Z,19.40
2023-04-11T05:14:57.159Z,18.67
2023-04-11T05:17:25.450Z,16.60
2023-04-11T05:19:53.003Z,17.10
2023-04-11T05:22:20.243Z,14.23
2023-04-11T05:24:47.325Z,13.23
2023-04-11T05:27:14.436Z,12.97
2023-04-11T05:29:41.568Z,14.37
2023-04-11T05:32:08.749Z,14.90
2023-04-11T05:34:38.041Z,14.63
2023-04-11T05:37:07.012Z,14.23
2023-04-11T05:39:34.129Z,17.10
2023-04-11T05:42:07.836Z,18.03
2023-04-11T05:44:35.216Z,22.87
2023-04-11T05:47:02.297Z,18.20
2023-04-11T05:49:29.366Z,30.93
2023-04-11T05:51:56.657Z,22.10
2023-04-11T05:54:36.462Z,41.13
2023-04-11T05:57:03.819Z,11.60
2023-04-11T05:59:31.874Z,46.37
2023-04-11T06:01:59.479Z,18.73
2023-04-11T06:04:26.976Z,15.50
2023-04-11T06:06:54.278Z,31.13
2023-04-11T06:09:21.397Z,22.77
2023-04-11T06:11:48.599Z,15.07
2023-04-11T06:14:15.874Z,12.50
2023-04-11T06:16:43.049Z,16.03
2023-04-11T06:19:10.218Z,13.00
2023-04-11T06:21:37.329Z,12.40
2023-04-11T06:24:11.052Z,15.07
2023-04-11T06:26:38.200Z,12.67
2023-04-11T06:29:05.874Z,14.63
2023-04-11T06:31:33.482Z,14.57
2023-04-11T06:34:03.475Z,44.37
2023-04-11T06:36:30.616Z,14.97
2023-04-11T06:38:57.710Z,15.83
2023-04-11T06:41:25.059Z,16.77
2023-04-11T06:43:52.236Z,16.60
2023-04-11T06:46:19.451Z,17.37
2023-04-11T06:48:46.543Z,18.33
2023-04-11T06:51:13.663Z,27.03
2023-04-11T06:53:40.786Z,24.00
2023-04-11T06:56:08.210Z,20.17
2023-04-11T06:58:35.648Z,20.13
2023-04-11T07:01:02.785Z,22.10
2023-04-11T07:03:31.003Z,20.67
2023-04-11T07:05:58.197Z,19.60
2023-04-11T07:08:25.488Z,20.85
2023-04-11T07:10:52.611Z,22.43
2023-04-11T07:13:21.230Z,20.73
2023-04-11T07:15:48.412Z,22.10
2023-04-11T07:18:15.585Z,21.15
2023-04-11T07:20:42.807Z,22.60
2023-04-11T07:23:10.046Z,22.33
2023-04-11T07:25:39.231Z,18.85
2023-04-11T07:28:07.251Z,20.23
2023-04-11T07:30:35.391Z,21.38
2023-04-11T07:33:03.386Z,20.23
2023-04-11T07:35:33.459Z,19.83
2023-04-11T07:38:01.177Z,29.02
2023-04-11T07:40:28.658Z,25.58
2023-04-11T07:42:55.774Z,23.63
2023-04-11T07:45:23.004Z,24.77
2023-04-11T07:47:50.498Z,19.27
2023-04-11T07:50:17.742Z,16.13
2023-04-11T07:52:44.978Z,14.00
2023-04-11T07:55:12.194Z,13.50
2023-04-11T07:57:39.320Z,12.80
2023-04-11T08:00:06.846Z,13.10
2023-04-11T08:02:34.055Z,10.40
2023-04-11T08:05:01.272Z,10.50
2023-04-11T08:07:28.670Z,9.95
2023-04-11T08:09:55.864Z,11.68
2023-04-11T08:12:22.985Z,9.02
2023-04-11T08:14:50.237Z,8.63
2023-04-11T08:17:27.187Z,8.70
2023-04-11T08:19:57.592Z,10.18
2023-04-11T08:22:24.920Z,9.75
2023-04-11T08:24:51.989Z,8.93
2023-04-11T08:27:19.092Z,10.18
2023-04-11T08:29:46.181Z,7.53
2023-04-11T08:32:13.507Z,7.25
2023-04-11T08:34:40.713Z,6.25
2023-04-11T08:37:07.830Z,6.80
2023-04-11T08:39:34.975Z,6.30
2023-04-11T08:42:02.078Z,8.65
2023-04-11T08:44:29.168Z,8.23
2023-04-11T08:46:56.254Z,9.07
2023-04-11T08:49:23.397Z,7.40
2023-04-11T08:51:51.223Z,8.27
2023-04-11T08:54:18.382Z,9.80
2023-04-11T08:56:45.682Z,9.65
2023-04-11T08:59:12.805Z,8.32
2023-04-11T09:01:40.744Z,10.65
2023-04-11T09:04:08.644Z,10.73
2023-04-11T09:06:35.807Z,8.75
2023-04-11T09:09:06.705Z,11.73
2023-04-11T09:11:52.637Z,8.43
2023-04-11T09:14:19.733Z,7.85
2023-04-11T09:16:57.754Z,10.00
2023-04-11T09:19:28.269Z,7.20
2023-04-11T09:21:56.790Z,8.07
2023-04-11T09:24:25.670Z,7.93
2023-04-11T09:27:06.934Z,6.78
2023-04-11T09:29:41.067Z,6.03
2023-04-11T09:32:08.218Z,5.00
2023-04-11T09:34:37.633Z,5.97
2023-04-11T09:37:04.959Z,5.97
2023-04-11T09:39:32.534Z,5.75
2023-04-11T09:41:59.756Z,4.97
2023-04-11T09:44:39.316Z,4.63
2023-04-11T09:47:06.499Z,6.55
2023-04-11T09:49:34.980Z,5.35
2023-04-11T09:52:02.164Z,4.38
2023-04-11T09:54:29.290Z,4.47
2023-04-11T09:56:56.390Z,4.90
2023-04-11T09:59:23.502Z,5.40
2023-04-11T10:01:51.768Z,6.10
2023-04-11T10:04:20.487Z,3.80
2023-04-11T10:06:48.109Z,4.90
2023-04-11T10:09:15.409Z,4.07
2023-04-11T10:11:43.136Z,3.55
2023-04-11T10:14:10.779Z,4.20
2023-04-11T10:16:38.482Z,4.10
2023-04-11T10:19:05.751Z,4.15
2023-04-11T10:21:32.980Z,4.28
2023-04-11T10:24:17.208Z,3.70
2023-04-11T10:26:51.030Z,5.25
2023-04-11T10:29:31.400Z,4.15
2023-04-11T10:32:11.011Z,4.45
2023-04-11T10:34:38.812Z,4.10
2023-04-11T10:37:09.173Z,4.15
2023-04-11T10:39:51.669Z,4.45
2023-04-11T10:42:27.981Z,4.38
2023-04-11T10:45:13.910Z,3.78
2023-04-11T10:47:41.112Z,5.57
2023-04-11T10:50:26.830Z,5.20
2023-04-11T10:52:57.226Z,4.00
2023-04-11T10:55:24.608Z,4.50
2023-04-11T10:58:07.405Z,4.80
2023-04-11T11:00:55.627Z,3.58
2023-04-11T11:03:23.674Z,4.47
2023-04-11T11:05:58.243Z,3.97
2023-04-11T11:08:30.613Z,3.85
2023-04-11T11:11:05.564Z,4.30
2023-04-11T11:13:39.796Z,6.85
2023-04-11T11:16:07.470Z,4.15
2023-04-11T11:18:34.732Z,4.35
2023-04-11T11:21:01.847Z,4.00
2023-04-11T11:23:28.993Z,4.68
2023-04-11T11:25:56.515Z,3.83
2023-04-11T11:28:23.673Z,4.28
2023-04-11T11:30:55.668Z,4.60
2023-04-11T11:33:29.417Z,4.43
2023-04-11T11:36:00.503Z,4.20
2023-04-11T11:38:28.447Z,5.53
2023-04-11T11:40:56.111Z,5.20
2023-04-11T11:43:23.240Z,4.10
2023-04-11T11:46:09.330Z,4.32
2023-04-11T11:48:36.680Z,5.30
2023-04-11T11:51:03.796Z,4.85
2023-04-11T11:53:30.915Z,4.47
2023-04-11T11:55:58.075Z,4.30
2023-04-11T11:58:25.278Z,4.28
2023-04-11T12:00:52.579Z,3.70
2023-04-11T12:03:24.499Z,3.42
2023-04-11T12:05:52.967Z,4.13
2023-04-11T12:08:22.011Z,3.88
2023-04-11T12:10:49.649Z,3.60
2023-04-11T12:13:19.048Z,3.88
2023-04-11T12:15:49.288Z,5.82
2023-04-11T12:18:16.531Z,26.58
2023-04-11T12:20:43.668Z,3.15
2023-04-11T12:23:10.751Z,3.13
2023-04-11T12:25:37.961Z,5.43
2023-04-11T12:28:05.190Z,2.97
2023-04-11T12:30:32.305Z,3.13
2023-04-11T12:32:59.582Z,2.65
2023-04-11T12:35:26.771Z,2.78
2023-04-11T12:37:53.976Z,2.97
2023-04-11T12:40:21.100Z,2.30
2023-04-11T12:42:56.747Z,2.30
2023-04-11T12:45:24.735Z,2.30
2023-04-11T12:47:51.982Z,2.20
2023-04-11T12:50:19.187Z,3.42
2023-04-11T12:52:46.305Z,2.80
2023-04-11T12:55:13.788Z,5.68
2023-04-11T12:57:41.616Z,3.80
2023-04-11T13:00:11.136Z,5.75
2023-04-11T13:02:43.848Z,3.90
2023-04-11T13:05:13.905Z,8.23
2023-04-11T13:07:41.491Z,4.60
2023-04-11T13:10:08.797Z,3.25
2023-04-11T13:12:41.192Z,3.40
2023-04-11T13:15:09.538Z,11.57
2023-04-11T13:17:36.646Z,3.88
2023-04-11T13:20:07.602Z,3.78
2023-04-11T13:22:34.725Z,4.10
2023-04-11T13:25:01.883Z,4.78
2023-04-11T13:27:29.112Z,3.40
2023-04-11T13:29:56.367Z,4.95
2023-04-11T13:32:23.523Z,4.05
2023-04-11T13:34:50.666Z,4.05
2023-04-11T13:37:17.817Z,4.18
2023-04-11T13:39:44.916Z,4.55
2023-04-11T13:42:12.032Z,3.72
2023-04-11T13:44:39.144Z,4.95
2023-04-11T13:47:06.304Z,3.97
2023-04-11T13:49:33.445Z,3.53
2023-04-11T13:52:00.874Z,3.72
2023-04-11T13:54:28.300Z,3.65
2023-04-11T13:56:56.452Z,4.20
2023-04-11T13:59:23.525Z,3.38
2023-04-11T14:01:50.644Z,3.60
2023-04-11T14:04:17.996Z,3.40
2023-04-11T14:06:45.695Z,4.00
2023-04-11T14:09:12.794Z,4.22
2023-04-11T14:11:39.941Z,3.67
2023-04-11T14:14:07.057Z,3.60
2023-04-11T14:16:34.188Z,3.58
2023-04-11T14:19:01.447Z,3.53
2023-04-11T14:21:28.786Z,4.45
2023-04-11T14:23:56.418Z,4.78
2023-04-11T14:26:23.757Z,3.95
2023-04-11T14:28:51.488Z,5.20
2023-04-11T14:31:18.680Z,4.13
2023-04-11T14:33:45.872Z,4.10
2023-04-11T14:36:12.978Z,4.47
2023-04-11T14:38:40.051Z,4.00
2023-04-11T14:41:07.520Z,3.88
2023-04-11T14:43:34.660Z,4.55
2023-04-11T14:46:01.846Z,5.25
2023-04-11T14:48:29.042Z,4.50
2023-04-11T14:50:56.211Z,4.40
2023-04-11T14:53:23.366Z,4.00
2023-04-11T14:55:50.528Z,4.35
2023-04-11T14:58:17.708Z,4.75
2023-04-11T15:00:45.496Z,3.88
2023-04-11T15:03:12.973Z,4.47
2023-04-11T15:05:40.264Z,3.85
2023-04-11T15:08:08.111Z,4.13
2023-04-11T15:10:35.448Z,4.25
2023-04-11T15:13:03.748Z,5.72
2023-04-11T15:15:31.194Z,5.78
2023-04-11T15:18:17.119Z,5.22
2023-04-11T15:20:44.186Z,7.28
2023-04-11T15:23:11.253Z,8.93
2023-04-11T15:25:38.353Z,31.23
2023-04-11T15:28:05.467Z,11.95
2023-04-11T15:30:32.561Z,7.57
2023-04-11T15:32:59.669Z,7.70
2023-04-11T15:35:26.743Z,9.02
2023-04-11T15:37:53.833Z,10.27
2023-04-11T15:40:20.976Z,10.88
2023-04-11T15:42:49.706Z,10.80
2023-04-11T15:45:16.814Z,12.43
2023-04-11T15:47:43.969Z,10.32
2023-04-11T15:50:11.971Z,12.13
2023-04-11T15:52:39.112Z,11.15
2023-04-11T15:55:06.828Z,9.10
2023-04-11T15:57:33.894Z,8.95
2023-04-11T16:00:01.314Z,11.38
2023-04-11T16:02:28.895Z,11.63
2023-04-11T16:04:56.231Z,6.72
2023-04-11T16:07:23.484Z,16.02
2023-04-11T16:09:50.712Z,30.13
2023-04-11T16:12:18.720Z,28.40
2023-04-11T16:14:45.971Z,22.75
2023-04-11T16:17:15.280Z,20.13
2023-04-11T16:19:42.424Z,27.75
2023-04-11T16:22:09.542Z,17.27
2023-04-11T16:24:36.720Z,13.18
2023-04-11T16:27:03.932Z,9.57
2023-04-11T16:29:31.051Z,8.00
2023-04-11T16:31:58.245Z,14.15
2023-04-11T16:34:25.434Z,9.13
2023-04-11T16:36:52.583Z,7.10
2023-04-11T16:39:19.670Z,18.58
2023-04-11T16:41:47.358Z,7.07
2023-04-11T16:44:14.471Z,7.05
2023-04-11T16:46:41.759Z,8.25
2023-04-11T16:49:09.137Z,16.20
2023-04-11T16:51:36.620Z,8.43
2023-04-11T16:54:06.824Z,8.93
2023-04-11T16:56:33.926Z,6.80
2023-04-11T16:59:01.543Z,6.10
2023-04-11T17:01:28.729Z,5.07
2023-04-11T17:03:56.233Z,6.60
2023-04-11T17:06:23.842Z,9.00
2023-04-11T17:08:50.936Z,7.55
2023-04-11T17:11:18.276Z,6.18
2023-04-11T17:13:45.943Z,5.40
2023-04-11T17:16:13.882Z,5.50
2023-04-11T17:18:41.065Z,7.13
2023-04-11T17:21:09.750Z,7.22
2023-04-11T17:23:56.562Z,8.13
2023-04-11T17:26:23.741Z,4.85
2023-04-11T17:28:51.036Z,4.95
2023-04-11T17:31:18.899Z,9.13
2023-04-11T17:33:46.389Z,4.60
2023-04-11T17:36:13.666Z,5.65
2023-04-11T17:38:43.248Z,4.50
2023-04-11T17:41:14.990Z,3.95
2023-04-11T17:43:43.403Z,6.95
2023-04-11T17:46:10.634Z,6.55
2023-04-11T17:48:37.790Z,7.30
2023-04-11T17:51:07.770Z,11.90
2023-04-11T17:53:34.919Z,14.65
2023-04-11T17:56:05.710Z,11.45
2023-04-11T17:58:33.129Z,13.23
2023-04-11T18:01:00.212Z,7.25
2023-04-11T18:03:28.161Z,10.65
2023-04-11T18:05:56.377Z,9.30
2023-04-11T18:08:39.134Z,6.28
2023-04-11T18:11:10.994Z,13.57
2023-04-11T18:13:38.097Z,16.35
2023-04-11T18:16:05.307Z,12.85
2023-04-11T18:18:32.474Z,13.80
2023-04-11T18:21:05.070Z,13.05
2023-04-11T18:23:34.374Z,16.73
2023-04-11T18:26:02.471Z,14.82
2023-04-11T18:28:29.703Z,16.85
2023-04-11T18:30:57.071Z,5.70
2023-04-11T18:33:24.327Z,5.65
2023-04-11T18:35:51.764Z,6.40
2023-04-11T18:38:19.041Z,6.45
2023-04-11T18:40:46.321Z,5.45
2023-04-11T18:43:13.776Z,5.88
2023-04-11T18:45:43.237Z,6.85
2023-04-11T18:48:12.489Z,6.45
2023-04-11T18:50:42.959Z,12.73
2023-04-11T18:53:13.129Z,12.93
2023-04-11T18:55:41.464Z,10.68
2023-04-11T18:58:10.023Z,8.88
2023-04-11T19:00:39.148Z,15.18
2023-04-11T19:03:07.572Z,8.85
2023-04-11T19:05:36.137Z,10.25
2023-04-11T19:08:03.784Z,12.43
2023-04-11T19:10:30.875Z,9.27
2023-04-11T19:12:57.997Z,13.05
2023-04-11T19:15:25.277Z,5.68
2023-04-11T19:17:52.443Z,9.10
2023-04-11T19:20:20.388Z,7.28
2023-04-11T19:22:47.483Z,4.22
2023-04-11T19:25:15.138Z,3.38
2023-04-11T19:27:42.543Z,3.08
2023-04-11T19:30:10.362Z,4.05
2023-04-11T19:32:44.320Z,3.83
2023-04-11T19:35:11.858Z,4.10
2023-04-11T19:37:39.408Z,3.35
2023-04-11T19:40:13.896Z,4.47
2023-04-11T19:42:41.610Z,4.53
2023-04-11T19:45:11.764Z,4.53
2023-04-11T19:47:39.915Z,5.22
2023-04-11T19:50:07.954Z,5.72
2023-04-11T19:52:35.160Z,7.28
2023-04-11T19:55:04.108Z,7.32
2023-04-11T19:57:31.634Z,7.38
2023-04-11T20:00:00.305Z,15.77
2023-04-11T20:02:27.853Z,16.23
2023-04-11T20:04:56.209Z,13.57
2023-04-11T20:07:23.721Z,18.75
2023-04-11T20:09:51.739Z,10.55
2023-04-11T20:12:19.194Z,7.57
2023-04-11T20:14:46.330Z,8.80
2023-04-11T20:17:13.520Z,11.20
2023-04-11T20:19:41.905Z,8.48
2023-04-11T20:22:11.309Z,21.88
2023-04-11T20:24:38.443Z,18.73
2023-04-11T20:27:05.578Z,13.13
2023-04-11T20:29:32.938Z,43.85
2023-04-11T20:32:00.870Z,14.15
2023-04-11T20:34:27.988Z,9.10
2023-04-11T20:36:55.892Z,7.75
2023-04-11T20:39:23.291Z,6.10
2023-04-11T20:41:52.385Z,5.75
2023-04-11T20:44:21.147Z,5.80
2023-04-11T20:46:48.304Z,10.10
2023-04-11T20:49:17.621Z,7.80
2023-04-11T20:51:44.977Z,14.85
2023-04-11T20:54:12.137Z,13.10
2023-04-11T20:56:39.322Z,7.00
2023-04-11T20:59:07.148Z,11.27
2023-04-11T21:01:34.358Z,8.20
2023-04-11T21:04:04.444Z,5.65
2023-04-11T21:06:32.069Z,10.63
2023-04-11T21:09:05.766Z,10.07
2023-04-11T21:11:33.237Z,7.78
2023-04-11T21:14:00.529Z,8.43
2023-04-11T21:16:27.727Z,5.82
2023-04-11T21:18:54.918Z,5.80
2023-04-11T21:21:22.011Z,4.93
2023-04-11T21:23:49.149Z,4.57
2023-04-11T21:26:16.736Z,9.25
2023-04-11T21:28:43.831Z,6.38
2023-04-11T21:31:11.023Z,5.85
2023-04-11T21:33:38.163Z,7.97
2023-04-11T21:36:05.615Z,9.07
2023-04-11T21:38:32.757Z,10.70
2023-04-11T21:40:59.850Z,10.48
2023-04-11T21:43:27.975Z,8.23
2023-04-11T21:45:55.058Z,7.68
2023-04-11T21:48:22.225Z,11.57
2023-04-11T21:50:49.494Z,16.35
2023-04-11T21:53:16.998Z,13.27
2023-04-11T21:55:47.376Z,18.05
2023-04-11T21:58:27.898Z,10.05
2023-04-11T22:00:56.546Z,7.78
2023-04-11T22:03:24.145Z,8.88
2023-04-11T22:05:52.158Z,10.85
2023-04-11T22:08:20.350Z,8.20
2023-04-11T22:10:48.531Z,6.30
2023-04-11T22:13:16.531Z,16.02
2023-04-11T22:15:43.725Z,10.18
2023-04-11T22:18:11.016Z,6.22
2023-04-11T22:20:43.643Z,8.25
2023-04-11T22:23:13.190Z,7.70
2023-04-11T22:25:43.295Z,7.50
2023-04-11T22:28:13.365Z,6.95
2023-04-11T22:30:40.472Z,7.88
2023-04-11T22:33:07.617Z,7.32
2023-04-11T22:35:35.060Z,7.43
2023-04-11T22:38:03.527Z,5.10
2023-04-11T22:40:30.670Z,5.25
2023-04-11T22:42:57.853Z,4.90
2023-04-11T22:45:25.082Z,4.95
2023-04-11T22:47:54.350Z,5.00
2023-04-11T22:50:21.847Z,4.55
2023-04-11T22:52:49.973Z,4.78
2023-04-11T22:55:18.603Z,4.97
2023-04-11T22:57:45.968Z,4.78
2023-04-11T23:00:16.338Z,7.65
2023-04-11T23:02:43.980Z,8.93
2023-04-11T23:05:11.396Z,12.68
2023-04-11T23:07:38.750Z,11.43
2023-04-11T23:10:09.002Z,10.25
2023-04-11T23:12:36.411Z,9.70
2023-04-11T23:15:04.150Z,8.07
2023-04-11T23:17:31.263Z,8.23
2023-04-11T23:19:59.446Z,12.75
2023-04-11T23:22:27.382Z,8.48
2023-04-11T23:24:54.540Z,5.88
2023-04-11T23:27:21.878Z,6.35
2023-04-11T23:29:49.984Z,6.38
2023-04-11T23:32:18.803Z,8.30
2023-04-11T23:34:46.390Z,13.57
2023-04-11T23:37:13.807Z,22.75
2023-04-11T23:39:41.065Z,20.70
2023-04-11T23:42:08.272Z,12.27
2023-04-11T23:44:35.563Z,10.43
2023-04-11T23:47:02.696Z,7.68
2023-04-11T23:49:29.838Z,10.05
2023-04-11T23:51:56.928Z,8.30
2023-04-11T23:54:24.053Z,8.45
2023-04-11T23:56:51.331Z,10.20
2023-04-11T23:59:18.422Z,10.82
